sensor_id;sensor_type;location;lat;lon;timestamp;pressure;altitude;pressure_sealevel;temperature;humidity
62978;BME280;49073;42.352;23.808;2022-12-18T00:02:38;95342.66;;;7.70;100.00
62978;BME280;49073;42.352;23.808;2022-12-18T00:05:46;95351.06;;;7.72;100.00
62978;BME280;49073;42.352;23.808;2022-12-18T00:08:48;95340.44;;;7.72;100.00
62978;BME280;49073;42.352;23.808;2022-12-18T00:11:49;95350.59;;;7.70;100.00
62978;BME280;49073;42.352;23.808;2022-12-18T00:14:50;95343.09;;;7.72;100.00
62978;BME280;49073;42.352;23.808;2022-12-18T00:17:50;95348.44;;;7.64;100.00
62978;BME280;49073;42.352;23.808;2022-12-18T00:20:51;95345.78;;;7.55;100.00
62978;BME280;49073;42.352;23.808;2022-12-18T00:23:52;95344.97;;;7.63;100.00
62978;BME280;49073;42.352;23.808;2022-12-18T00:26:52;95355.47;;;7.60;100.00
62978;BME280;49073;42.352;23.808;2022-12-18T00:29:53;95354.50;;;7.64;100.00
62978;BME280;49073;42.352;23.808;2022-12-18T00:32:53;95367.47;;;7.66;100.00
62978;BME280;49073;42.352;23.808;2022-12-18T00:35:54;95361.53;;;7.60;100.00
62978;BME280;49073;42.352;23.808;2022-12-18T00:38:56;95367.47;;;7.57;100.00
62978;BME280;49073;42.352;23.808;2022-12-18T00:41:56;95370.41;;;7.64;100.00
62978;BME280;49073;42.352;23.808;2022-12-18T00:45:16;95372.47;;;7.67;100.00
62978;BME280;49073;42.352;23.808;2022-12-18T00:48:16;95363.59;;;7.54;100.00
62978;BME280;49073;42.352;23.808;2022-12-18T00:51:17;95378.88;;;7.49;100.00
62978;BME280;49073;42.352;23.808;2022-12-18T00:54:17;95376.72;;;7.42;100.00
62978;BME280;49073;42.352;23.808;2022-12-18T00:57:18;95379.22;;;7.38;100.00
62978;BME280;49073;42.352;23.808;2022-12-18T01:00:18;95384.69;;;7.33;100.00
62978;BME280;49073;42.352;23.808;2022-12-18T01:03:19;95384.84;;;7.28;100.00
62978;BME280;49073;42.352;23.808;2022-12-18T01:06:19;95382.19;;;7.19;100.00
62978;BME280;49073;42.352;23.808;2022-12-18T01:09:20;95375.22;;;7.15;100.00
62978;BME280;49073;42.352;23.808;2022-12-18T01:12:20;95378.00;;;7.09;100.00
62978;BME280;49073;42.352;23.808;2022-12-18T01:15:21;95379.56;;;7.10;100.00
62978;BME280;49073;42.352;23.808;2022-12-18T01:18:22;95392.38;;;7.08;100.00
62978;BME280;49073;42.352;23.808;2022-12-18T01:21:23;95402.00;;;7.04;100.00
62978;BME280;49073;42.352;23.808;2022-12-18T01:24:24;95388.16;;;6.98;100.00
62978;BME280;49073;42.352;23.808;2022-12-18T01:27:25;95394.66;;;7.01;100.00
62978;BME280;49073;42.352;23.808;2022-12-18T01:30:26;95397.47;;;6.96;100.00
62978;BME280;49073;42.352;23.808;2022-12-18T01:33:26;95406.38;;;7.00;100.00
62978;BME280;49073;42.352;23.808;2022-12-18T01:36:29;95404.81;;;6.99;100.00
62978;BME280;49073;42.352;23.808;2022-12-18T01:39:30;95403.09;;;7.03;100.00
62978;BME280;49073;42.352;23.808;2022-12-18T01:42:32;95414.16;;;7.05;100.00
62978;BME280;49073;42.352;23.808;2022-12-18T01:45:32;95399.69;;;7.03;100.00
62978;BME280;49073;42.352;23.808;2022-12-18T01:48:33;95400.78;;;7.02;100.00
62978;BME280;49073;42.352;23.808;2022-12-18T01:51:33;95405.44;;;6.96;100.00
62978;BME280;49073;42.352;23.808;2022-12-18T01:54:34;95408.41;;;6.94;100.00
62978;BME280;49073;42.352;23.808;2022-12-18T01:57:35;95411.66;;;6.82;100.00
62978;BME280;49073;42.352;23.808;2022-12-18T02:00:37;95416.50;;;6.80;100.00
62978;BME280;49073;42.352;23.808;2022-12-18T02:03:39;95413.69;;;6.68;100.00
62978;BME280;49073;42.352;23.808;2022-12-18T02:06:41;95410.69;;;6.52;100.00
62978;BME280;49073;42.352;23.808;2022-12-18T02:10:12;95412.34;;;6.39;100.00
62978;BME280;49073;42.352;23.808;2022-12-18T02:23:21;95421.38;;;6.29;100.00
62978;BME280;49073;42.352;23.808;2022-12-18T02:26:28;95424.31;;;6.28;100.00
62978;BME280;49073;42.352;23.808;2022-12-18T02:29:46;95431.16;;;6.29;100.00
62978;BME280;49073;42.352;23.808;2022-12-18T02:32:52;95422.88;;;6.21;100.00
62978;BME280;49073;42.352;23.808;2022-12-18T02:35:55;95425.19;;;6.14;100.00
62978;BME280;49073;42.352;23.808;2022-12-18T02:38:58;95436.41;;;6.11;100.00
62978;BME280;49073;42.352;23.808;2022-12-18T02:42:00;95429.78;;;6.00;100.00
62978;BME280;49073;42.352;23.808;2022-12-18T02:45:08;95437.44;;;6.01;100.00
62978;BME280;49073;42.352;23.808;2022-12-18T02:48:10;95454.09;;;6.02;100.00
62978;BME280;49073;42.352;23.808;2022-12-18T02:51:26;95454.44;;;6.09;100.00
62978;BME280;49073;42.352;23.808;2022-12-18T02:54:51;95448.81;;;6.02;100.00
62978;BME280;49073;42.352;23.808;2022-12-18T02:57:59;95453.13;;;5.97;100.00
62978;BME280;49073;42.352;23.808;2022-12-18T03:01:23;95452.03;;;5.99;100.00
62978;BME280;49073;42.352;23.808;2022-12-18T03:07:43;95460.22;;;5.88;100.00
62978;BME280;49073;42.352;23.808;2022-12-18T03:11:00;95467.78;;;5.81;100.00
62978;BME280;49073;42.352;23.808;2022-12-18T03:14:03;95471.47;;;5.71;100.00
62978;BME280;49073;42.352;23.808;2022-12-18T03:17:13;95467.09;;;5.66;100.00
62978;BME280;49073;42.352;23.808;2022-12-18T03:20:19;95466.72;;;5.59;100.00
62978;BME280;49073;42.352;23.808;2022-12-18T03:23:25;95478.19;;;5.54;100.00
62978;BME280;49073;42.352;23.808;2022-12-18T03:26:27;95474.91;;;5.49;100.00
62978;BME280;49073;42.352;23.808;2022-12-18T03:29:38;95489.31;;;5.43;100.00
62978;BME280;49073;42.352;23.808;2022-12-18T03:32:50;95485.72;;;5.38;100.00
62978;BME280;49073;42.352;23.808;2022-12-18T03:35:52;95489.44;;;5.37;100.00
62978;BME280;49073;42.352;23.808;2022-12-18T03:38:53;95498.47;;;5.36;100.00
62978;BME280;49073;42.352;23.808;2022-12-18T03:42:16;95509.38;;;5.44;100.00
62978;BME280;49073;42.352;23.808;2022-12-18T03:45:43;95510.94;;;5.45;100.00
62978;BME280;49073;42.352;23.808;2022-12-18T03:48:52;95515.03;;;5.51;100.00
62978;BME280;49073;42.352;23.808;2022-12-18T03:52:09;95514.06;;;5.47;100.00
62978;BME280;49073;42.352;23.808;2022-12-18T03:55:12;95521.22;;;5.46;100.00
62978;BME280;49073;42.352;23.808;2022-12-18T03:58:16;95524.81;;;5.50;100.00
62978;BME280;49073;42.352;23.808;2022-12-18T04:01:19;95533.47;;;5.42;100.00
62978;BME280;49073;42.352;23.808;2022-12-18T04:04:21;95523.59;;;5.34;100.00
62978;BME280;49073;42.352;23.808;2022-12-18T04:07:24;95528.72;;;5.30;100.00
62978;BME280;49073;42.352;23.808;2022-12-18T04:10:25;95532.41;;;5.29;100.00
62978;BME280;49073;42.352;23.808;2022-12-18T04:13:32;95538.41;;;5.21;100.00
62978;BME280;49073;42.352;23.808;2022-12-18T04:16:33;95543.50;;;5.17;100.00
62978;BME280;49073;42.352;23.808;2022-12-18T04:19:34;95545.56;;;5.20;100.00
62978;BME280;49073;42.352;23.808;2022-12-18T04:22:34;95546.66;;;5.19;100.00
62978;BME280;49073;42.352;23.808;2022-12-18T04:25:35;95556.91;;;5.21;100.00
62978;BME280;49073;42.352;23.808;2022-12-18T04:28:36;95558.78;;;5.20;100.00
62978;BME280;49073;42.352;23.808;2022-12-18T04:31:38;95561.59;;;5.24;100.00
62978;BME280;49073;42.352;23.808;2022-12-18T04:34:38;95561.31;;;5.12;99.71
62978;BME280;49073;42.352;23.808;2022-12-18T04:37:39;95569.56;;;5.10;99.70
62978;BME280;49073;42.352;23.808;2022-12-18T04:40:40;95574.03;;;5.09;99.35
62978;BME280;49073;42.352;23.808;2022-12-18T04:43:41;95572.88;;;5.16;99.81
62978;BME280;49073;42.352;23.808;2022-12-18T04:46:42;95576.19;;;5.07;99.54
62978;BME280;49073;42.352;23.808;2022-12-18T04:49:42;95584.13;;;5.07;99.68
62978;BME280;49073;42.352;23.808;2022-12-18T04:52:45;95592.84;;;5.08;99.64
62978;BME280;49073;42.352;23.808;2022-12-18T04:55:45;95613.78;;;5.04;99.04
62978;BME280;49073;42.352;23.808;2022-12-18T04:58:46;95609.66;;;4.98;98.60
62978;BME280;49073;42.352;23.808;2022-12-18T05:01:47;95604.06;;;5.00;99.04
62978;BME280;49073;42.352;23.808;2022-12-18T05:04:48;95604.59;;;5.02;98.75
62978;BME280;49073;42.352;23.808;2022-12-18T05:07:48;95617.00;;;5.01;98.38
62978;BME280;49073;42.352;23.808;2022-12-18T05:10:49;95614.94;;;4.98;98.52
62978;BME280;49073;42.352;23.808;2022-12-18T05:13:50;95616.13;;;4.92;97.99
62978;BME280;49073;42.352;23.808;2022-12-18T05:16:50;95614.47;;;4.96;98.18
62978;BME280;49073;42.352;23.808;2022-12-18T05:19:52;95620.81;;;4.95;97.91
62978;BME280;49073;42.352;23.808;2022-12-18T05:22:53;95628.34;;;4.88;97.34
62978;BME280;49073;42.352;23.808;2022-12-18T05:25:56;95636.28;;;4.88;97.47
62978;BME280;49073;42.352;23.808;2022-12-18T05:28:56;95633.81;;;4.91;97.51
62978;BME280;49073;42.352;23.808;2022-12-18T05:31:57;95646.84;;;5.02;97.09
62978;BME280;49073;42.352;23.808;2022-12-18T05:34:57;95646.44;;;5.08;96.90
62978;BME280;49073;42.352;23.808;2022-12-18T05:37:58;95650.66;;;5.09;96.23
62978;BME280;49073;42.352;23.808;2022-12-18T05:40:58;95661.44;;;5.13;96.74
62978;BME280;49073;42.352;23.808;2022-12-18T05:43:59;95660.53;;;5.18;96.06
62978;BME280;49073;42.352;23.808;2022-12-18T05:47:00;95667.00;;;5.12;95.87
62978;BME280;49073;42.352;23.808;2022-12-18T05:50:01;95669.16;;;5.23;95.79
62978;BME280;49073;42.352;23.808;2022-12-18T05:53:03;95673.56;;;5.28;95.14
62978;BME280;49073;42.352;23.808;2022-12-18T05:56:05;95666.53;;;5.23;94.99
62978;BME280;49073;42.352;23.808;2022-12-18T05:59:06;95662.50;;;5.26;94.79
62978;BME280;49073;42.352;23.808;2022-12-18T06:02:07;95666.41;;;5.29;94.77
62978;BME280;49073;42.352;23.808;2022-12-18T06:05:08;95677.09;;;5.37;95.15
62978;BME280;49073;42.352;23.808;2022-12-18T06:08:09;95683.25;;;5.33;93.96
62978;BME280;49073;42.352;23.808;2022-12-18T06:11:11;95679.16;;;5.27;93.82
62978;BME280;49073;42.352;23.808;2022-12-18T06:14:11;95690.00;;;5.11;93.97
62978;BME280;49073;42.352;23.808;2022-12-18T06:17:12;95693.41;;;5.12;94.55
62978;BME280;49073;42.352;23.808;2022-12-18T06:20:12;95687.38;;;5.11;94.56
62978;BME280;49073;42.352;23.808;2022-12-18T06:23:13;95699.38;;;5.03;93.89
62978;BME280;49073;42.352;23.808;2022-12-18T06:26:15;95701.69;;;4.77;94.27
62978;BME280;49073;42.352;23.808;2022-12-18T06:29:16;95712.78;;;4.60;94.66
62978;BME280;49073;42.352;23.808;2022-12-18T06:32:16;95711.78;;;4.56;95.17
62978;BME280;49073;42.352;23.808;2022-12-18T06:35:17;95715.88;;;4.48;95.24
62978;BME280;49073;42.352;23.808;2022-12-18T06:38:17;95729.34;;;4.46;95.38
62978;BME280;49073;42.352;23.808;2022-12-18T06:41:20;95737.75;;;4.48;95.70
62978;BME280;49073;42.352;23.808;2022-12-18T06:44:21;95740.91;;;4.50;94.72
62978;BME280;49073;42.352;23.808;2022-12-18T06:47:21;95746.09;;;4.56;94.55
62978;BME280;49073;42.352;23.808;2022-12-18T06:50:22;95746.91;;;4.56;94.77
62978;BME280;49073;42.352;23.808;2022-12-18T06:53:22;95751.88;;;4.58;94.17
62978;BME280;49073;42.352;23.808;2022-12-18T06:56:23;95754.59;;;4.53;93.61
62978;BME280;49073;42.352;23.808;2022-12-18T06:59:23;95754.50;;;4.58;93.67
62978;BME280;49073;42.352;23.808;2022-12-18T07:02:24;95755.00;;;4.60;93.92
62978;BME280;49073;42.352;23.808;2022-12-18T07:05:25;95760.78;;;4.62;93.94
62978;BME280;49073;42.352;23.808;2022-12-18T07:08:25;95768.69;;;4.62;93.57
62978;BME280;49073;42.352;23.808;2022-12-18T07:11:26;95770.28;;;4.63;93.22
62978;BME280;49073;42.352;23.808;2022-12-18T07:14:26;95773.78;;;4.58;92.91
62978;BME280;49073;42.352;23.808;2022-12-18T07:17:27;95777.41;;;4.62;93.11
62978;BME280;49073;42.352;23.808;2022-12-18T07:20:28;95771.25;;;4.67;92.75
62978;BME280;49073;42.352;23.808;2022-12-18T07:23:28;95763.22;;;4.77;92.67
62978;BME280;49073;42.352;23.808;2022-12-18T07:26:30;95759.31;;;4.89;92.18
62978;BME280;49073;42.352;23.808;2022-12-18T07:29:30;95766.59;;;4.97;91.92
62978;BME280;49073;42.352;23.808;2022-12-18T07:32:31;95768.56;;;5.05;91.26
62978;BME280;49073;42.352;23.808;2022-12-18T07:35:33;95773.75;;;5.10;90.38
62978;BME280;49073;42.352;23.808;2022-12-18T07:38:34;95776.63;;;5.28;90.06
62978;BME280;49073;42.352;23.808;2022-12-18T07:41:35;95783.41;;;5.34;89.64
62978;BME280;49073;42.352;23.808;2022-12-18T07:44:35;95785.84;;;5.31;89.22
62978;BME280;49073;42.352;23.808;2022-12-18T07:47:36;95796.53;;;5.39;89.67
62978;BME280;49073;42.352;23.808;2022-12-18T07:50:37;95801.31;;;5.37;89.06
62978;BME280;49073;42.352;23.808;2022-12-18T07:53:38;95794.28;;;5.47;88.90
62978;BME280;49073;42.352;23.808;2022-12-18T07:56:38;95799.47;;;5.52;88.75
62978;BME280;49073;42.352;23.808;2022-12-18T07:59:39;95808.41;;;5.56;88.55
62978;BME280;49073;42.352;23.808;2022-12-18T08:02:39;95799.16;;;5.53;87.85
62978;BME280;49073;42.352;23.808;2022-12-18T08:05:40;95801.16;;;5.62;87.98
62978;BME280;49073;42.352;23.808;2022-12-18T08:08:41;95808.19;;;5.66;88.15
62978;BME280;49073;42.352;23.808;2022-12-18T08:11:42;95809.50;;;5.69;88.17
62978;BME280;49073;42.352;23.808;2022-12-18T08:14:43;95812.44;;;5.81;88.14
62978;BME280;49073;42.352;23.808;2022-12-18T08:17:44;95817.84;;;5.90;87.51
62978;BME280;49073;42.352;23.808;2022-12-18T08:20:44;95815.44;;;5.75;86.52
62978;BME280;49073;42.352;23.808;2022-12-18T08:23:45;95820.94;;;5.78;86.80
62978;BME280;49073;42.352;23.808;2022-12-18T08:26:45;95808.41;;;5.84;86.63
62978;BME280;49073;42.352;23.808;2022-12-18T08:29:46;95812.59;;;5.85;86.04
62978;BME280;49073;42.352;23.808;2022-12-18T08:32:47;95805.66;;;5.75;85.61
62978;BME280;49073;42.352;23.808;2022-12-18T08:35:51;95817.53;;;5.64;85.83
62978;BME280;49073;42.352;23.808;2022-12-18T08:38:51;95813.91;;;5.60;86.09
62978;BME280;49073;42.352;23.808;2022-12-18T08:41:52;95812.69;;;5.52;85.91
62978;BME280;49073;42.352;23.808;2022-12-18T08:45:11;95826.41;;;5.54;86.46
62978;BME280;49073;42.352;23.808;2022-12-18T08:48:12;95820.91;;;5.50;86.56
62978;BME280;49073;42.352;23.808;2022-12-18T08:51:16;95822.88;;;5.45;86.03
62978;BME280;49073;42.352;23.808;2022-12-18T08:54:17;95830.19;;;5.34;86.04
62978;BME280;49073;42.352;23.808;2022-12-18T08:57:17;95826.19;;;5.36;86.43
62978;BME280;49073;42.352;23.808;2022-12-18T09:00:18;95818.53;;;5.35;86.55
62978;BME280;49073;42.352;23.808;2022-12-18T09:03:19;95819.22;;;5.27;87.03
62978;BME280;49073;42.352;23.808;2022-12-18T09:06:21;95828.00;;;5.22;87.03
62978;BME280;49073;42.352;23.808;2022-12-18T09:09:22;95824.84;;;5.20;86.91
62978;BME280;49073;42.352;23.808;2022-12-18T09:12:22;95825.75;;;5.15;86.92
62978;BME280;49073;42.352;23.808;2022-12-18T09:15:23;95828.97;;;5.12;87.00
62978;BME280;49073;42.352;23.808;2022-12-18T09:18:24;95827.97;;;5.08;87.08
62978;BME280;49073;42.352;23.808;2022-12-18T09:21:27;95828.97;;;5.12;87.19
62978;BME280;49073;42.352;23.808;2022-12-18T09:24:28;95830.44;;;5.18;87.40
62978;BME280;49073;42.352;23.808;2022-12-18T09:27:28;95818.81;;;5.19;86.99
62978;BME280;49073;42.352;23.808;2022-12-18T09:30:29;95830.03;;;5.11;86.84
62978;BME280;49073;42.352;23.808;2022-12-18T09:33:29;95840.78;;;5.15;87.39
62978;BME280;49073;42.352;23.808;2022-12-18T09:36:29;95837.66;;;5.13;86.60
62978;BME280;49073;42.352;23.808;2022-12-18T09:39:30;95830.69;;;5.03;86.74
62978;BME280;49073;42.352;23.808;2022-12-18T09:42:30;95831.06;;;4.96;86.87
62978;BME280;49073;42.352;23.808;2022-12-18T09:45:40;95829.63;;;5.04;86.78
62978;BME280;49073;42.352;23.808;2022-12-18T09:48:45;95823.47;;;5.08;86.54
62978;BME280;49073;42.352;23.808;2022-12-18T09:52:26;95828.66;;;5.14;86.54
62978;BME280;49073;42.352;23.808;2022-12-18T09:55:36;95829.06;;;5.21;86.76
62978;BME280;49073;42.352;23.808;2022-12-18T09:59:15;95818.13;;;5.28;86.14
62978;BME280;49073;42.352;23.808;2022-12-18T10:02:20;95821.69;;;5.37;85.96
62978;BME280;49073;42.352;23.808;2022-12-18T10:08:48;95828.75;;;5.42;85.84
62978;BME280;49073;42.352;23.808;2022-12-18T10:12:23;95825.75;;;5.29;85.33
62978;BME280;49073;42.352;23.808;2022-12-18T10:28:16;95818.41;;;5.12;86.18
62978;BME280;49073;42.352;23.808;2022-12-18T10:31:21;95821.53;;;5.14;86.42
62978;BME280;49073;42.352;23.808;2022-12-18T10:34:21;95823.38;;;5.14;86.31
62978;BME280;49073;42.352;23.808;2022-12-18T10:37:25;95814.47;;;5.09;85.78
62978;BME280;49073;42.352;23.808;2022-12-18T10:40:26;95820.25;;;5.12;86.78
62978;BME280;49073;42.352;23.808;2022-12-18T10:43:36;95818.97;;;5.09;87.04
62978;BME280;49073;42.352;23.808;2022-12-18T10:46:37;95814.88;;;5.17;87.10
62978;BME280;49073;42.352;23.808;2022-12-18T10:49:46;95809.41;;;5.13;86.90
62978;BME280;49073;42.352;23.808;2022-12-18T10:52:59;95809.84;;;5.01;87.36
62978;BME280;49073;42.352;23.808;2022-12-18T10:56:02;95814.91;;;4.98;87.40
62978;BME280;49073;42.352;23.808;2022-12-18T10:59:13;95816.47;;;4.99;88.18
62978;BME280;49073;42.352;23.808;2022-12-18T11:02:46;95815.84;;;5.07;87.85
62978;BME280;49073;42.352;23.808;2022-12-18T11:05:48;95826.50;;;5.16;88.57
62978;BME280;49073;42.352;23.808;2022-12-18T11:09:04;95819.38;;;5.16;88.13
62978;BME280;49073;42.352;23.808;2022-12-18T11:12:17;95824.00;;;5.24;88.90
62978;BME280;49073;42.352;23.808;2022-12-18T11:15:27;95811.66;;;5.20;88.07
62978;BME280;49073;42.352;23.808;2022-12-18T11:18:32;95812.34;;;5.26;87.89
62978;BME280;49073;42.352;23.808;2022-12-18T11:21:39;95808.56;;;5.32;87.90
62978;BME280;49073;42.352;23.808;2022-12-18T11:24:41;95812.97;;;5.36;87.40
62978;BME280;49073;42.352;23.808;2022-12-18T11:27:51;95813.88;;;5.46;87.20
62978;BME280;49073;42.352;23.808;2022-12-18T11:34:30;95811.94;;;5.65;87.32
62978;BME280;49073;42.352;23.808;2022-12-18T11:37:32;95812.91;;;5.70;86.77
62978;BME280;49073;42.352;23.808;2022-12-18T11:40:36;95819.75;;;5.71;86.68
62978;BME280;49073;42.352;23.808;2022-12-18T11:46:43;95817.78;;;5.62;86.30
62978;BME280;49073;42.352;23.808;2022-12-18T11:49:48;95816.53;;;5.60;86.07
62978;BME280;49073;42.352;23.808;2022-12-18T11:52:50;95822.28;;;5.48;84.92
62978;BME280;49073;42.352;23.808;2022-12-18T12:00:23;95826.19;;;5.36;84.27
62978;BME280;49073;42.352;23.808;2022-12-18T12:09:30;95816.94;;;5.20;83.64
62978;BME280;49073;42.352;23.808;2022-12-18T12:26:01;95825.34;;;5.22;83.21
62978;BME280;49073;42.352;23.808;2022-12-18T12:35:35;95843.06;;;5.21;82.66
62978;BME280;49073;42.352;23.808;2022-12-18T12:38:42;95840.63;;;5.25;82.94
62978;BME280;49073;42.352;23.808;2022-12-18T12:41:46;95840.34;;;5.27;83.28
62978;BME280;49073;42.352;23.808;2022-12-18T12:45:06;95854.28;;;5.32;83.91
62978;BME280;49073;42.352;23.808;2022-12-18T12:48:44;95859.88;;;5.45;83.70
62978;BME280;49073;42.352;23.808;2022-12-18T12:52:32;95868.66;;;5.40;83.31
62978;BME280;49073;42.352;23.808;2022-12-18T12:55:28;95869.63;;;5.30;83.28
62978;BME280;49073;42.352;23.808;2022-12-18T13:02:23;95879.16;;;5.45;84.37
62978;BME280;49073;42.352;23.808;2022-12-18T13:05:43;95884.94;;;5.47;83.99
62978;BME280;49073;42.352;23.808;2022-12-18T13:08:58;95901.91;;;5.60;84.58
62978;BME280;49073;42.352;23.808;2022-12-18T13:12:11;95896.13;;;5.58;84.31
62978;BME280;49073;42.352;23.808;2022-12-18T13:19:03;95896.00;;;5.49;83.48
62978;BME280;49073;42.352;23.808;2022-12-18T13:22:03;95902.38;;;5.48;83.10
62978;BME280;49073;42.352;23.808;2022-12-18T13:25:36;95897.00;;;5.53;82.13
62978;BME280;49073;42.352;23.808;2022-12-18T13:34:41;95914.50;;;5.82;80.27
62978;BME280;49073;42.352;23.808;2022-12-18T13:37:44;95918.16;;;5.87;80.00
62978;BME280;49073;42.352;23.808;2022-12-18T13:43:53;95924.19;;;5.73;77.23
62978;BME280;49073;42.352;23.808;2022-12-18T13:46:54;95918.59;;;5.61;76.77
62978;BME280;49073;42.352;23.808;2022-12-18T13:49:56;95925.63;;;5.65;76.90
62978;BME280;49073;42.352;23.808;2022-12-18T13:52:57;95938.19;;;5.74;77.34
62978;BME280;49073;42.352;23.808;2022-12-18T13:55:59;95955.03;;;5.78;77.37
62978;BME280;49073;42.352;23.808;2022-12-18T13:59:26;95952.22;;;5.74;77.98
62978;BME280;49073;42.352;23.808;2022-12-18T14:02:33;95962.97;;;5.78;76.36
62978;BME280;49073;42.352;23.808;2022-12-18T14:05:36;95955.94;;;5.73;76.45
62978;BME280;49073;42.352;23.808;2022-12-18T14:08:41;95966.28;;;5.70;75.93
62978;BME280;49073;42.352;23.808;2022-12-18T14:11:47;95970.31;;;5.67;76.60
62978;BME280;49073;42.352;23.808;2022-12-18T14:14:50;95972.31;;;5.56;75.84
62978;BME280;49073;42.352;23.808;2022-12-18T14:17:57;95966.41;;;5.45;75.89
62978;BME280;49073;42.352;23.808;2022-12-18T14:21:01;95975.81;;;5.51;76.17
62978;BME280;49073;42.352;23.808;2022-12-18T14:27:31;95978.34;;;5.43;76.29
62978;BME280;49073;42.352;23.808;2022-12-18T14:30:36;95981.75;;;5.43;77.04
62978;BME280;49073;42.352;23.808;2022-12-18T14:33:37;95973.91;;;5.38;77.23
62978;BME280;49073;42.352;23.808;2022-12-18T14:36:38;95971.34;;;5.33;78.08
62978;BME280;49073;42.352;23.808;2022-12-18T14:39:40;95998.50;;;5.38;77.09
62978;BME280;49073;42.352;23.808;2022-12-18T14:42:40;95999.00;;;5.41;77.27
62978;BME280;49073;42.352;23.808;2022-12-18T14:45:42;95999.06;;;5.35;77.49
62978;BME280;49073;42.352;23.808;2022-12-18T14:48:47;96001.78;;;5.30;78.47
62978;BME280;49073;42.352;23.808;2022-12-18T14:51:56;95996.28;;;5.27;77.82
62978;BME280;49073;42.352;23.808;2022-12-18T14:54:59;95999.25;;;5.20;78.51
62978;BME280;49073;42.352;23.808;2022-12-18T14:58:02;96007.25;;;5.15;78.65
62978;BME280;49073;42.352;23.808;2022-12-18T15:01:02;96017.00;;;5.19;78.77
62978;BME280;49073;42.352;23.808;2022-12-18T15:04:05;96012.28;;;5.16;79.12
62978;BME280;49073;42.352;23.808;2022-12-18T15:07:23;96002.69;;;5.20;79.29
62978;BME280;49073;42.352;23.808;2022-12-18T15:10:30;96005.28;;;5.26;79.08
62978;BME280;49073;42.352;23.808;2022-12-18T15:13:31;96004.69;;;5.29;79.44
62978;BME280;49073;42.352;23.808;2022-12-18T15:16:31;96004.19;;;5.27;75.96
62978;BME280;49073;42.352;23.808;2022-12-18T15:19:36;96011.28;;;5.31;75.86
62978;BME280;49073;42.352;23.808;2022-12-18T15:22:37;96009.72;;;5.30;75.60
62978;BME280;49073;42.352;23.808;2022-12-18T15:25:39;96013.63;;;5.33;75.81
62978;BME280;49073;42.352;23.808;2022-12-18T15:28:52;96020.16;;;5.41;76.51
62978;BME280;49073;42.352;23.808;2022-12-18T15:32:03;96022.22;;;5.44;77.09
62978;BME280;49073;42.352;23.808;2022-12-18T15:38:12;96023.13;;;5.34;79.46
62978;BME280;49073;42.352;23.808;2022-12-18T15:41:14;96023.97;;;5.29;80.31
62978;BME280;49073;42.352;23.808;2022-12-18T15:44:25;96025.03;;;5.28;80.86
62978;BME280;49073;42.352;23.808;2022-12-18T15:47:26;96027.06;;;5.36;80.91
62978;BME280;49073;42.352;23.808;2022-12-18T15:50:26;96029.41;;;5.38;81.38
62978;BME280;49073;42.352;23.808;2022-12-18T15:53:32;96036.34;;;5.34;81.05
62978;BME280;49073;42.352;23.808;2022-12-18T15:56:35;96031.28;;;5.37;80.87
62978;BME280;49073;42.352;23.808;2022-12-18T15:59:55;96033.13;;;5.37;80.41
62978;BME280;49073;42.352;23.808;2022-12-18T16:02:58;96037.19;;;5.29;81.02
62978;BME280;49073;42.352;23.808;2022-12-18T16:05:59;96046.09;;;5.38;80.53
62978;BME280;49073;42.352;23.808;2022-12-18T16:09:03;96043.56;;;5.47;80.04
62978;BME280;49073;42.352;23.808;2022-12-18T16:12:06;96042.88;;;5.42;80.57
62978;BME280;49073;42.352;23.808;2022-12-18T16:15:07;96051.47;;;5.28;80.55
62978;BME280;49073;42.352;23.808;2022-12-18T16:18:08;96047.34;;;5.22;80.79
62978;BME280;49073;42.352;23.808;2022-12-18T16:21:08;96055.75;;;5.24;80.09
62978;BME280;49073;42.352;23.808;2022-12-18T16:24:17;96051.34;;;5.19;80.36
62978;BME280;49073;42.352;23.808;2022-12-18T16:27:18;96047.91;;;5.19;80.18
62978;BME280;49073;42.352;23.808;2022-12-18T16:30:23;96050.97;;;5.07;81.13
62978;BME280;49073;42.352;23.808;2022-12-18T16:33:24;96052.41;;;5.18;80.29
62978;BME280;49073;42.352;23.808;2022-12-18T16:36:24;96047.03;;;4.80;80.64
62978;BME280;49073;42.352;23.808;2022-12-18T16:39:25;96060.03;;;4.76;80.84
62978;BME280;49073;42.352;23.808;2022-12-18T16:42:26;96056.28;;;4.83;80.63
62978;BME280;49073;42.352;23.808;2022-12-18T16:45:26;96054.13;;;4.85;80.87
62978;BME280;49073;42.352;23.808;2022-12-18T16:48:36;96065.81;;;4.78;79.81
62978;BME280;49073;42.352;23.808;2022-12-18T16:51:36;96069.47;;;4.83;79.43
62978;BME280;49073;42.352;23.808;2022-12-18T16:54:37;96078.53;;;4.76;80.83
62978;BME280;49073;42.352;23.808;2022-12-18T16:57:37;96078.91;;;4.89;81.06
62978;BME280;49073;42.352;23.808;2022-12-18T17:00:38;96082.63;;;4.88;81.50
62978;BME280;49073;42.352;23.808;2022-12-18T17:03:40;96091.09;;;4.85;81.62
62978;BME280;49073;42.352;23.808;2022-12-18T17:06:43;96098.00;;;4.80;82.12
62978;BME280;49073;42.352;23.808;2022-12-18T17:09:43;96108.69;;;4.94;81.81
62978;BME280;49073;42.352;23.808;2022-12-18T17:12:44;96116.59;;;4.94;82.15
62978;BME280;49073;42.352;23.808;2022-12-18T17:15:44;96109.31;;;5.10;79.47
62978;BME280;49073;42.352;23.808;2022-12-18T17:18:46;96101.22;;;5.02;77.67
62978;BME280;49073;42.352;23.808;2022-12-18T17:21:48;96104.75;;;4.68;77.58
62978;BME280;49073;42.352;23.808;2022-12-18T17:24:49;96100.38;;;4.53;77.42
62978;BME280;49073;42.352;23.808;2022-12-18T17:27:50;96109.25;;;4.32;78.15
62978;BME280;49073;42.352;23.808;2022-12-18T17:30:55;96119.31;;;4.30;78.55
62978;BME280;49073;42.352;23.808;2022-12-18T17:33:56;96119.19;;;4.16;79.32
62978;BME280;49073;42.352;23.808;2022-12-18T17:36:57;96119.19;;;4.11;79.33
62978;BME280;49073;42.352;23.808;2022-12-18T17:39:57;96118.72;;;4.04;80.11
62978;BME280;49073;42.352;23.808;2022-12-18T17:42:58;96121.59;;;4.07;80.28